SNF weather

Sub Teniente Nestor Arias Airport
San Felipe, Yaracuy, Venezuela

Public forecast

Using degrees Celsius for public forecast. Weather courtesy of forecast.io.

METAR (pilot weather report)

Report is more than 6 hours old.

Retrieved 2017/08/10 11:00 UTC (2 years ago):

SVSP 101100Z 101100VCFG SCT012 SCT200 25/25 A2990

TAF (pilot weather forecast)

Forecast is more than 6 hours old.

Closest forecast is Barquisimeto International Airport, 38.4 nm (71.1 km) WSW. Retrieved 2019/09/16 18:15 UTC (10 hours ago):

TAF SVBM 161533Z 1618/1718 09010KT 9999 FEW013 CB SCT070 TX33/1618Z TN22/1708Z BECMG 1618/1622 10012KT 6000 TSSH FEW013 CB BKN060